createdAt,value
2019-05-11T00:00:57.880Z,1.57
2019-05-11T00:03:30.338Z,1.77
2019-05-11T00:06:02.897Z,1.47
2019-05-11T00:08:35.494Z,0.80
2019-05-11T00:11:07.974Z,2.50
2019-05-11T00:13:40.688Z,1.50
2019-05-11T00:16:13.325Z,1.07
2019-05-11T00:18:45.811Z,1.10
2019-05-11T00:21:18.645Z,2.23
2019-05-11T00:23:51.307Z,2.33
2019-05-11T00:26:23.741Z,1.77
2019-05-11T00:29:07.323Z,1.07
2019-05-11T00:31:39.855Z,1.20
2019-05-11T00:34:12.534Z,4.57
2019-05-11T00:36:45.171Z,1.20
2019-05-11T00:39:17.842Z,1.30
2019-05-11T00:41:50.391Z,2.80
2019-05-11T00:44:23.101Z,2.53
2019-05-11T00:46:55.619Z,4.27
2019-05-11T00:49:27.992Z,1.50
2019-05-11T00:52:00.446Z,2.60
2019-05-11T00:54:32.968Z,1.50
2019-05-11T00:57:05.513Z,1.47
2019-05-11T00:59:38.322Z,3.27
2019-05-11T01:02:11.013Z,1.20
2019-05-11T01:04:43.867Z,1.57
2019-05-11T01:07:16.644Z,1.40
2019-05-11T01:09:49.542Z,1.33
2019-05-11T01:12:22.208Z,1.97
2019-05-11T01:14:55.713Z,1.50
2019-05-11T01:17:28.147Z,2.50
2019-05-11T01:20:01.556Z,1.20
2019-05-11T01:22:34.329Z,1.50
2019-05-11T01:25:07.192Z,1.90
2019-05-11T01:27:39.589Z,3.37
2019-05-11T01:30:12.688Z,1.57
2019-05-11T01:32:45.135Z,1.83
2019-05-11T01:35:18.057Z,1.90
2019-05-11T01:37:50.403Z,3.43
2019-05-11T01:40:23.081Z,2.50
2019-05-11T01:42:55.533Z,1.90
2019-05-11T01:45:27.988Z,2.37
2019-05-11T01:48:00.782Z,2.90
2019-05-11T01:50:33.452Z,1.80
2019-05-11T01:53:05.932Z,2.10
2019-05-11T01:55:38.421Z,3.77
2019-05-11T01:58:10.947Z,1.40
2019-05-11T02:00:44.066Z,1.87
2019-05-11T02:03:16.593Z,1.63
2019-05-11T02:05:51.674Z,3.20
2019-05-11T02:08:23.946Z,1.30
2019-05-11T02:10:56.536Z,1.93
2019-05-11T02:13:29.246Z,1.30
2019-05-11T02:16:01.859Z,1.50
2019-05-11T02:18:34.387Z,3.93
2019-05-11T02:21:07.217Z,1.77
2019-05-11T02:23:39.739Z,1.90
2019-05-11T02:26:12.297Z,1.90
2019-05-11T02:28:44.862Z,1.17
2019-05-11T02:31:17.560Z,1.40
2019-05-11T02:33:50.252Z,1.23
2019-05-11T02:36:22.945Z,1.10
2019-05-11T02:38:55.726Z,1.87
2019-05-11T02:41:36.476Z,2.10
2019-05-11T02:44:02.396Z,1.00
2019-05-11T02:46:35.069Z,2.93
2019-05-11T02:49:07.883Z,1.63
2019-05-11T02:51:42.009Z,1.03
2019-05-11T02:54:15.266Z,4.70
2019-05-11T02:57:06.644Z,1.37
2019-05-11T02:59:39.098Z,2.60
2019-05-11T03:02:12.286Z,1.30
2019-05-11T03:04:56.154Z,3.50
2019-05-11T03:07:28.680Z,3.03
2019-05-11T03:10:01.346Z,3.00
2019-05-11T03:12:34.015Z,1.60
2019-05-11T03:15:06.847Z,1.80
2019-05-11T03:17:39.310Z,3.07
2019-05-11T03:20:12.072Z,4.10
2019-05-11T03:22:55.723Z,4.50
2019-05-11T03:25:28.344Z,2.07
2019-05-11T03:28:00.918Z,3.30
2019-05-11T03:30:33.273Z,2.43
2019-05-11T03:33:05.754Z,3.33
2019-05-11T03:35:38.510Z,2.57
2019-05-11T03:38:11.083Z,2.20
2019-05-11T03:40:43.627Z,2.60
2019-05-11T03:43:16.032Z,2.10
2019-05-11T03:45:48.401Z,2.03
2019-05-11T03:48:21.240Z,2.10
2019-05-11T03:50:53.771Z,1.80
2019-05-11T03:53:26.406Z,3.87
2019-05-11T03:55:59.079Z,2.83
2019-05-11T03:58:31.677Z,1.60
2019-05-11T04:01:04.243Z,3.57
2019-05-11T04:03:36.879Z,1.60
2019-05-11T04:06:09.556Z,2.00
2019-05-11T04:08:42.002Z,2.37
2019-05-11T04:11:14.896Z,5.03
2019-05-11T04:13:47.543Z,2.70
2019-05-11T04:16:20.457Z,2.90
2019-05-11T04:18:53.063Z,4.60
2019-05-11T04:21:25.470Z,2.93
2019-05-11T04:23:57.830Z,5.43
2019-05-11T04:26:30.614Z,5.97
2019-05-11T04:29:03.077Z,6.33
2019-05-11T04:31:36.339Z,3.87
2019-05-11T04:34:09.053Z,3.57
2019-05-11T04:36:41.398Z,3.50
2019-05-11T04:39:13.868Z,3.10
2019-05-11T04:41:46.519Z,4.00
2019-05-11T04:44:19.226Z,5.00
2019-05-11T04:46:52.102Z,5.40
2019-05-11T04:49:24.848Z,5.33
2019-05-11T04:51:57.247Z,5.60
2019-05-11T04:54:29.741Z,4.53
2019-05-11T04:57:02.324Z,4.87
2019-05-11T04:59:34.893Z,4.63
2019-05-11T05:02:07.703Z,5.20
2019-05-11T05:04:40.264Z,4.20
2019-05-11T05:07:16.484Z,6.97
2019-05-11T05:09:47.685Z,5.63
2019-05-11T05:12:20.395Z,4.40
2019-05-11T05:14:53.091Z,5.10
2019-05-11T05:17:25.830Z,4.50
2019-05-11T05:19:58.760Z,4.87
2019-05-11T05:22:31.197Z,5.33
2019-05-11T05:25:03.914Z,4.50
2019-05-11T05:27:36.520Z,4.50
2019-05-11T05:30:10.380Z,3.80
2019-05-11T05:32:43.012Z,5.43
2019-05-11T05:35:15.768Z,7.97
2019-05-11T05:37:48.262Z,6.63
2019-05-11T05:40:21.034Z,4.07
2019-05-11T05:42:53.734Z,4.17
2019-05-11T05:45:26.107Z,3.67
2019-05-11T05:47:58.862Z,4.33
2019-05-11T05:50:31.498Z,3.83
2019-05-11T05:53:04.268Z,3.80
2019-05-11T05:55:36.756Z,6.13
2019-05-11T05:58:09.423Z,4.87
2019-05-11T06:00:41.981Z,5.13
2019-05-11T06:03:14.933Z,4.43
2019-05-11T06:05:48.127Z,4.83
2019-05-11T06:08:20.999Z,5.00
2019-05-11T06:10:53.812Z,5.10
2019-05-11T06:13:43.513Z,5.33
2019-05-11T06:16:00.719Z,4.83
2019-05-11T06:18:33.076Z,4.77
2019-05-11T06:21:05.837Z,4.83
2019-05-11T06:23:38.269Z,4.33
2019-05-11T06:26:10.959Z,5.27
2019-05-11T06:28:43.600Z,4.17
2019-05-11T06:31:16.550Z,4.30
2019-05-11T06:33:49.881Z,4.47
2019-05-11T06:36:22.785Z,4.77
2019-05-11T06:38:55.469Z,4.90
2019-05-11T06:41:27.872Z,4.50
2019-05-11T06:44:02.204Z,5.37
2019-05-11T06:46:35.328Z,5.10
2019-05-11T06:49:08.336Z,5.00
2019-05-11T06:51:41.044Z,5.23
2019-05-11T06:54:13.590Z,5.90
2019-05-11T06:56:46.067Z,7.00
2019-05-11T06:59:18.114Z,6.73
2019-05-11T07:01:50.324Z,7.17
2019-05-11T07:04:22.374Z,5.60
2019-05-11T07:06:54.495Z,9.00
2019-05-11T07:09:27.118Z,9.20
2019-05-11T07:11:59.833Z,9.93
2019-05-11T07:14:32.768Z,7.43
2019-05-11T07:17:05.432Z,6.23
2019-05-11T07:19:37.933Z,6.53
2019-05-11T07:22:10.127Z,5.83
2019-05-11T07:24:43.050Z,5.53
2019-05-11T07:27:15.602Z,6.80
2019-05-11T07:29:48.653Z,7.47
2019-05-11T07:32:25.786Z,6.93
2019-05-11T07:34:57.518Z,7.77
2019-05-11T07:37:29.552Z,9.20
2019-05-11T07:40:02.271Z,7.53
2019-05-11T07:42:37.722Z,11.97
2019-05-11T07:45:10.435Z,11.30
2019-05-11T07:47:42.974Z,10.77
2019-05-11T07:50:15.149Z,9.53
2019-05-11T07:52:48.288Z,6.27
2019-05-11T07:55:21.487Z,7.57
2019-05-11T07:57:53.629Z,8.97
2019-05-11T08:00:28.041Z,6.63
2019-05-11T08:02:59.761Z,7.57
2019-05-11T08:05:32.323Z,6.77
2019-05-11T08:08:04.478Z,9.13
2019-05-11T08:10:39.083Z,7.70
2019-05-11T08:13:11.266Z,6.60
2019-05-11T08:15:43.737Z,7.07
2019-05-11T08:18:18.283Z,7.17
2019-05-11T08:20:50.519Z,6.50
2019-05-11T08:23:23.268Z,6.93
2019-05-11T08:25:58.090Z,7.63
2019-05-11T08:28:30.445Z,7.47
2019-05-11T08:31:02.938Z,8.10
2019-05-11T08:33:35.363Z,8.70
2019-05-11T08:36:08.455Z,8.83
2019-05-11T08:38:41.079Z,7.63
2019-05-11T08:41:13.642Z,8.67
2019-05-11T08:43:48.006Z,7.67
2019-05-11T08:46:20.950Z,8.17
2019-05-11T08:48:53.468Z,7.97
2019-05-11T08:51:27.909Z,8.07
2019-05-11T08:54:00.197Z,9.47
2019-05-11T08:56:32.779Z,8.47
2019-05-11T08:59:05.107Z,10.33
2019-05-11T09:01:39.330Z,9.40
2019-05-11T09:04:12.094Z,10.13
2019-05-11T09:06:44.553Z,8.20
2019-05-11T09:09:18.089Z,8.27
2019-05-11T09:11:50.746Z,8.57
2019-05-11T09:14:32.198Z,7.77
2019-05-11T09:17:04.699Z,7.77
2019-05-11T09:19:38.836Z,9.47
2019-05-11T09:22:11.454Z,8.65
2019-05-11T09:24:44.194Z,9.37
2019-05-11T09:27:18.375Z,8.83
2019-05-11T09:29:50.955Z,9.30
2019-05-11T09:32:23.600Z,8.80
2019-05-11T09:34:58.018Z,8.30
2019-05-11T09:37:30.536Z,8.48
2019-05-11T09:40:03.286Z,8.43
2019-05-11T09:42:51.444Z,9.75
2019-05-11T09:45:24.015Z,8.45
2019-05-11T09:47:58.282Z,7.97
2019-05-11T09:50:31.037Z,9.23
2019-05-11T09:53:03.597Z,8.85
2019-05-11T09:55:38.702Z,10.10
2019-05-11T09:58:10.329Z,8.78
2019-05-11T10:00:42.937Z,10.32
2019-05-11T10:03:18.155Z,10.18
2019-05-11T10:05:50.812Z,10.13
2019-05-11T10:08:23.302Z,9.35
2019-05-11T10:10:57.926Z,8.60
2019-05-11T10:13:30.089Z,12.00
2019-05-11T10:16:07.134Z,12.00
2019-05-11T10:18:38.549Z,11.00
2019-05-11T10:21:11.295Z,10.43
2019-05-11T10:23:43.886Z,8.50
2019-05-11T10:26:18.776Z,8.95
2019-05-11T10:28:51.324Z,10.88
2019-05-11T10:31:23.927Z,12.40
2019-05-11T10:33:58.061Z,11.88
2019-05-11T10:36:30.935Z,12.73
2019-05-11T10:39:03.948Z,11.35
2019-05-11T10:41:38.583Z,9.38
2019-05-11T10:44:10.801Z,9.65
2019-05-11T10:46:43.548Z,9.40
2019-05-11T10:49:18.292Z,10.08
2019-05-11T10:51:50.673Z,10.82
2019-05-11T10:54:23.276Z,10.38
2019-05-11T10:56:57.744Z,10.95
2019-05-11T10:59:29.941Z,7.40
2019-05-11T11:02:02.715Z,7.45
2019-05-11T11:04:35.268Z,5.97
2019-05-11T11:07:07.996Z,9.55
2019-05-11T11:09:40.533Z,7.05
2019-05-11T11:12:12.985Z,5.47
2019-05-11T11:14:45.450Z,4.75
2019-05-11T11:17:19.173Z,4.50
2019-05-11T11:19:52.053Z,6.80
2019-05-11T11:22:38.975Z,4.70
2019-05-11T11:24:59.287Z,4.72
2019-05-11T11:27:33.083Z,4.78
2019-05-11T11:30:05.917Z,5.50
2019-05-11T11:32:38.842Z,5.45
2019-05-11T11:35:11.480Z,4.10
2019-05-11T11:37:43.864Z,4.58
2019-05-11T11:40:17.718Z,5.90
2019-05-11T11:42:50.636Z,4.85
2019-05-11T11:45:23.343Z,5.47
2019-05-11T11:47:57.904Z,4.05
2019-05-11T11:50:29.844Z,4.17
2019-05-11T11:53:02.644Z,18.95
2019-05-11T11:55:35.252Z,4.72
2019-05-11T11:58:08.289Z,4.72
2019-05-11T12:00:41.295Z,4.45
2019-05-11T12:03:13.828Z,4.95
2019-05-11T12:05:47.752Z,3.83
2019-05-11T12:08:20.284Z,2.80
2019-05-11T12:10:53.391Z,2.87
2019-05-11T12:13:29.715Z,4.60
2019-05-11T12:16:02.290Z,2.45
2019-05-11T12:18:34.917Z,2.33
2019-05-11T12:21:07.984Z,2.50
2019-05-11T12:23:40.704Z,2.52
2019-05-11T12:26:13.097Z,2.55
2019-05-11T12:28:45.561Z,2.87
2019-05-11T12:31:18.639Z,3.33
2019-05-11T12:33:51.261Z,1.92
2019-05-11T12:36:23.857Z,2.10
2019-05-11T12:38:58.041Z,2.85
2019-05-11T12:41:30.841Z,2.30
2019-05-11T12:44:03.384Z,3.50
2019-05-11T12:46:37.371Z,2.62
2019-05-11T12:49:10.379Z,1.37
2019-05-11T12:51:42.952Z,2.90
2019-05-11T12:54:15.441Z,3.87
2019-05-11T12:56:50.639Z,3.65
2019-05-11T12:59:23.534Z,3.52
2019-05-11T13:01:55.911Z,3.72
2019-05-11T13:04:28.737Z,3.75
2019-05-11T13:07:01.406Z,9.53
2019-05-11T13:09:34.333Z,4.78
2019-05-11T13:12:08.018Z,3.75
2019-05-11T13:15:00.795Z,3.60
2019-05-11T13:17:37.569Z,2.37
2019-05-11T13:20:09.766Z,5.00
2019-05-11T13:22:42.735Z,5.47
2019-05-11T13:25:17.604Z,5.50
2019-05-11T13:27:49.755Z,5.10
2019-05-11T13:30:22.317Z,5.35
2019-05-11T13:32:54.894Z,6.22
2019-05-11T13:35:28.492Z,4.90
2019-05-11T13:38:01.160Z,3.83
2019-05-11T13:40:33.677Z,3.80
2019-05-11T13:43:08.113Z,3.08
2019-05-11T13:45:40.281Z,4.08
2019-05-11T13:48:12.620Z,2.35
2019-05-11T13:50:45.186Z,6.70
2019-05-11T13:53:18.346Z,6.50
2019-05-11T13:55:51.179Z,2.60
2019-05-11T13:58:23.685Z,2.45
2019-05-11T14:00:58.408Z,2.62
2019-05-11T14:03:31.051Z,2.85
2019-05-11T14:06:04.773Z,2.20
2019-05-11T14:08:38.435Z,2.45
2019-05-11T14:11:11.137Z,2.45
2019-05-11T14:13:47.806Z,3.42
2019-05-11T14:16:19.428Z,1.95
2019-05-11T14:18:54.685Z,2.40
2019-05-11T14:21:28.839Z,5.20
2019-05-11T14:24:03.319Z,3.05
2019-05-11T14:26:38.375Z,3.67
2019-05-11T14:29:10.132Z,2.80
2019-05-11T14:31:42.689Z,2.47
2019-05-11T14:34:17.755Z,1.90
2019-05-11T14:36:49.504Z,5.17
2019-05-11T14:39:23.549Z,2.02
2019-05-11T14:41:56.028Z,1.82
2019-05-11T14:44:28.795Z,1.75
2019-05-11T14:47:01.534Z,1.82
2019-05-11T14:49:34.134Z,1.95
2019-05-11T14:52:08.305Z,2.12
2019-05-11T14:54:41.197Z,4.85
2019-05-11T14:57:18.760Z,2.00
2019-05-11T14:59:51.326Z,3.67
2019-05-11T15:02:49.285Z,3.10
2019-05-11T15:05:22.352Z,3.50
2019-05-11T15:07:58.158Z,1.77
2019-05-11T15:10:31.035Z,2.08
2019-05-11T15:13:03.894Z,2.45
2019-05-11T15:15:48.848Z,3.50
2019-05-11T15:18:35.205Z,5.93
2019-05-11T15:20:58.030Z,4.28
2019-05-11T15:23:30.430Z,31.97
2019-05-11T15:26:09.380Z,20.23
2019-05-11T15:28:42.287Z,9.67
2019-05-11T15:31:15.004Z,14.70
2019-05-11T15:33:48.878Z,21.55
2019-05-11T15:36:21.860Z,33.63
2019-05-11T15:38:58.302Z,18.10
2019-05-11T15:41:31.336Z,45.90
2019-05-11T15:44:24.502Z,40.73
2019-05-11T15:46:59.782Z,17.30
2019-05-11T15:49:32.444Z,10.97
2019-05-11T15:52:08.158Z,4.27
2019-05-11T15:54:39.766Z,3.33
2019-05-11T15:57:14.701Z,2.53
2019-05-11T15:59:54.364Z,2.90
2019-05-11T16:02:28.913Z,4.03
2019-05-11T16:05:01.675Z,3.47
2019-05-11T16:07:34.301Z,5.20
2019-05-11T16:10:25.282Z,2.40
2019-05-11T16:12:58.715Z,2.53
2019-05-11T16:15:31.520Z,3.87
2019-05-11T16:18:04.536Z,2.63
2019-05-11T16:20:37.191Z,4.77
2019-05-11T16:23:09.879Z,3.10
2019-05-11T16:25:43.214Z,3.40
2019-05-11T16:28:15.869Z,2.90
2019-05-11T16:31:09.176Z,2.67
2019-05-11T16:33:42.206Z,4.50
2019-05-11T16:36:14.999Z,3.63
2019-05-11T16:38:49.695Z,5.80
2019-05-11T16:41:22.183Z,4.70
2019-05-11T16:43:58.366Z,5.72
2019-05-11T16:46:29.011Z,4.10
2019-05-11T16:49:03.311Z,2.65
2019-05-11T16:51:35.851Z,2.47
2019-05-11T16:54:11.469Z,2.00
2019-05-11T16:56:44.216Z,2.50
2019-05-11T16:59:18.248Z,3.80
2019-05-11T17:01:51.205Z,11.10
2019-05-11T17:04:26.505Z,3.08
2019-05-11T17:07:01.377Z,4.30
2019-05-11T17:09:34.114Z,2.62
2019-05-11T17:12:08.571Z,8.98
2019-05-11T17:14:59.416Z,5.47
2019-05-11T17:17:34.001Z,4.43
2019-05-11T17:20:07.982Z,2.23
2019-05-11T17:22:40.609Z,2.97
2019-05-11T17:25:13.489Z,16.60
2019-05-11T17:27:48.805Z,4.97
2019-05-11T17:30:21.055Z,2.63
2019-05-11T17:32:54.351Z,2.80
2019-05-11T17:35:26.861Z,3.05
2019-05-11T17:37:59.478Z,3.30
2019-05-11T17:40:32.025Z,3.87
2019-05-11T17:43:04.968Z,2.20
2019-05-11T17:45:37.396Z,3.43
2019-05-11T17:48:10.035Z,1.42
2019-05-11T17:50:42.519Z,2.70
2019-05-11T17:53:15.105Z,2.63
2019-05-11T17:55:48.776Z,2.53
2019-05-11T17:58:21.491Z,11.47
2019-05-11T18:00:53.902Z,5.23
2019-05-11T18:03:27.838Z,2.87
2019-05-11T18:06:00.609Z,2.63
2019-05-11T18:08:33.245Z,6.80
2019-05-11T18:11:08.355Z,2.20
2019-05-11T18:13:40.524Z,3.93
2019-05-11T18:16:12.856Z,4.47
2019-05-11T18:18:45.442Z,2.13
2019-05-11T18:21:18.810Z,2.20
2019-05-11T18:23:51.562Z,2.60
2019-05-11T18:26:23.914Z,3.43
2019-05-11T18:28:58.574Z,2.17
2019-05-11T18:31:30.891Z,3.33
2019-05-11T18:34:03.781Z,1.63
2019-05-11T18:36:38.146Z,1.60
2019-05-11T18:39:10.758Z,1.50
2019-05-11T18:41:43.276Z,1.90
2019-05-11T18:44:15.832Z,2.63
2019-05-11T18:46:48.460Z,1.63
2019-05-11T18:49:21.388Z,2.23
2019-05-11T18:51:54.297Z,1.50
2019-05-11T18:54:27.714Z,2.10
2019-05-11T18:57:00.349Z,10.20
2019-05-11T18:59:32.792Z,3.73
2019-05-11T19:02:08.222Z,1.63
2019-05-11T19:04:39.752Z,2.33
2019-05-11T19:07:16.865Z,1.90
2019-05-11T19:09:48.407Z,2.00
2019-05-11T19:12:20.867Z,2.77
2019-05-11T19:14:53.579Z,3.33
2019-05-11T19:17:28.886Z,1.70
2019-05-11T19:20:00.944Z,1.23
2019-05-11T19:22:33.473Z,7.13
2019-05-11T19:25:08.750Z,6.30
2019-05-11T19:27:40.498Z,3.93
2019-05-11T19:30:13.074Z,9.40
2019-05-11T19:32:48.656Z,7.30
2019-05-11T19:35:21.645Z,4.50
2019-05-11T19:37:54.419Z,26.60
2019-05-11T19:40:27.150Z,6.90
2019-05-11T19:42:59.764Z,5.20
2019-05-11T19:45:32.199Z,8.13
2019-05-11T19:48:04.929Z,1.17
2019-05-11T19:50:38.212Z,3.50
2019-05-11T19:53:11.823Z,6.77
2019-05-11T19:55:44.514Z,3.10
2019-05-11T19:58:19.203Z,2.20
2019-05-11T20:00:51.158Z,0.80
2019-05-11T20:03:23.847Z,0.90
2019-05-11T20:05:58.046Z,0.60
2019-05-11T20:08:30.886Z,0.77
2019-05-11T20:11:03.684Z,2.23
2019-05-11T20:13:38.662Z,1.03
2019-05-11T20:16:11.043Z,1.70
2019-05-11T20:18:43.742Z,3.53
2019-05-11T20:21:20.281Z,0.50
2019-05-11T20:23:50.800Z,0.97
2019-05-11T20:26:23.442Z,1.20
2019-05-11T20:28:56.118Z,0.80
2019-05-11T20:31:28.652Z,0.97
2019-05-11T20:34:01.098Z,1.50
2019-05-11T20:36:33.686Z,1.40
2019-05-11T20:39:08.006Z,2.03
2019-05-11T20:41:40.599Z,2.23
2019-05-11T20:44:14.604Z,0.50
2019-05-11T20:46:48.643Z,0.63
2019-05-11T20:49:32.557Z,1.33
2019-05-11T20:52:05.410Z,1.43
2019-05-11T20:54:38.569Z,1.17
2019-05-11T20:57:11.604Z,0.70
2019-05-11T20:59:44.034Z,0.37
2019-05-11T21:02:18.268Z,0.90
2019-05-11T21:04:51.518Z,0.50
2019-05-11T21:07:24.496Z,0.40
2019-05-11T21:09:57.739Z,1.03
2019-05-11T21:12:30.685Z,0.40
2019-05-11T21:15:03.397Z,0.80
2019-05-11T21:17:35.920Z,1.00
2019-05-11T21:20:09.238Z,0.40
2019-05-11T21:22:42.283Z,0.90
2019-05-11T21:25:14.998Z,2.20
2019-05-11T21:27:48.643Z,5.70
2019-05-11T21:30:21.984Z,1.47
2019-05-11T21:32:54.777Z,0.40
2019-05-11T21:35:28.079Z,1.37
2019-05-11T21:38:00.884Z,0.47
2019-05-11T21:40:33.386Z,1.10
2019-05-11T21:43:05.861Z,0.77
2019-05-11T21:45:40.730Z,1.03
2019-05-11T21:48:12.694Z,0.57
2019-05-11T21:50:45.328Z,0.87
2019-05-11T21:53:18.466Z,1.17
2019-05-11T21:55:50.944Z,2.47
2019-05-11T21:58:42.854Z,1.43
2019-05-11T22:01:20.056Z,0.87
2019-05-11T22:03:50.977Z,0.37
2019-05-11T22:06:23.428Z,1.83
2019-05-11T22:08:55.839Z,1.23
2019-05-11T22:11:28.596Z,0.43
2019-05-11T22:14:01.156Z,0.40
2019-05-11T22:16:33.890Z,0.57
2019-05-11T22:19:08.684Z,0.50
2019-05-11T22:21:41.215Z,0.30
2019-05-11T22:24:13.619Z,0.97
2019-05-11T22:26:46.085Z,0.20
2019-05-11T22:29:18.575Z,1.90
2019-05-11T22:31:50.980Z,0.77
2019-05-11T22:34:23.414Z,1.43
2019-05-11T22:36:58.093Z,0.40
2019-05-11T22:39:30.772Z,1.73
2019-05-11T22:42:03.536Z,0.30
2019-05-11T22:44:38.496Z,1.27
2019-05-11T22:47:10.454Z,0.40
2019-05-11T22:49:42.924Z,0.63
2019-05-11T22:52:17.856Z,0.53
2019-05-11T22:54:49.531Z,1.70
2019-05-11T22:57:21.881Z,0.33
2019-05-11T22:59:54.414Z,0.10
2019-05-11T23:02:28.665Z,0.73
2019-05-11T23:05:01.067Z,0.47
2019-05-11T23:07:33.828Z,1.23
2019-05-11T23:10:08.582Z,0.33
2019-05-11T23:12:40.973Z,1.07
2019-05-11T23:15:13.842Z,0.20
2019-05-11T23:17:46.416Z,0.90
2019-05-11T23:20:19.046Z,0.20
2019-05-11T23:22:58.039Z,0.23
2019-05-11T23:25:26.062Z,0.80
2019-05-11T23:27:58.866Z,0.23
2019-05-11T23:30:31.573Z,0.30
2019-05-11T23:33:04.013Z,0.60
2019-05-11T23:35:38.214Z,0.40
2019-05-11T23:38:10.953Z,0.20
2019-05-11T23:40:43.655Z,0.40
2019-05-11T23:43:18.960Z,0.20
2019-05-11T23:45:50.400Z,0.30
2019-05-11T23:48:23.168Z,1.17
2019-05-11T23:50:57.908Z,0.40
2019-05-11T23:53:29.972Z,0.30
2019-05-11T23:56:02.487Z,0.50
2019-05-11T23:58:35.081Z,0.63
